Time;durP1;ratioP1;P1;durP2;ratioP2;P2;SDS_P1;SDS_P2;PMS_P1;PMS_P2;Temp;Humidity;BMP_temperature;BMP_pressure;BME280_temperature;BME280_humidity;BME280_pressure;Samples;Min_cycle;Max_cycle;Signal;HPM_P1;HPM_P2
2024/02/23 06:00:47;;;;;;;3.03;0.63;;;6.00;91.70;;;;;;4683823;23;20523;-81
2024/02/23 06:02:49;;;;;;;2.53;0.70;;;6.00;91.60;;;;;;4071441;29;20078;-79
2024/02/23 06:04:51;;;;;;;1.98;0.57;;;6.00;91.70;;;;;;4071139;29;20060;-80
2024/02/23 06:06:53;;;;;;;2.70;0.80;;;6.00;91.90;;;;;;4071122;29;20052;-80
2024/02/23 06:08:55;;;;;;;3.40;0.65;;;6.00;91.70;;;;;;4071212;29;20052;-80
2024/02/23 06:10:59;;;;;;;2.22;0.70;;;6.00;91.60;;;;;;4071624;29;20051;-81
2024/02/23 06:13:01;;;;;;;3.65;0.80;;;6.00;91.70;;;;;;4071002;29;20135;-81
2024/02/23 06:15:01;;;;;;;3.95;0.80;;;6.00;91.60;;;;;;4071165;29;20056;-80
2024/02/23 06:17:06;;;;;;;2.65;0.70;;;6.00;91.60;;;;;;4070668;29;20474;-79
2024/02/23 06:19:10;;;;;;;1.42;0.50;;;6.00;91.70;;;;;;4071003;29;20052;-80
2024/02/23 06:21:13;;;;;;;4.07;0.60;;;6.00;91.70;;;;;;4071369;29;20044;-79
2024/02/23 06:23:17;;;;;;;2.63;0.60;;;5.90;91.50;;;;;;4071842;29;20047;-79
2024/02/23 06:25:19;;;;;;;3.25;0.80;;;5.90;91.40;;;;;;4074385;29;20048;-81
2024/02/23 06:27:21;;;;;;;3.70;0.70;;;5.90;91.50;;;;;;4074493;29;20056;-79
2024/02/23 06:29:23;;;;;;;3.85;0.68;;;5.90;91.80;;;;;;4071628;29;20048;-80
2024/02/23 06:31:24;;;;;;;2.97;0.60;;;5.80;91.70;;;;;;4071685;29;20052;-81
2024/02/23 06:33:27;;;;;;;2.33;0.80;;;5.70;91.80;;;;;;4071864;29;20478;-80
2024/02/23 06:35:29;;;;;;;1.92;0.60;;;5.70;91.80;;;;;;4071180;29;20332;-81
2024/02/23 06:37:31;;;;;;;2.95;0.70;;;5.80;92.10;;;;;;4070799;29;20056;-80
2024/02/23 06:39:33;;;;;;;4.13;0.70;;;5.70;91.70;;;;;;4070785;29;20084;-79
2024/02/23 06:41:35;;;;;;;4.15;0.60;;;5.80;91.70;;;;;;4070399;29;20437;-79
2024/02/23 06:43:37;;;;;;;2.00;0.60;;;5.70;91.50;;;;;;4070566;29;20060;-80
2024/02/23 06:45:38;;;;;;;3.25;0.68;;;5.80;91.40;;;;;;4070931;29;20051;-80
2024/02/23 06:47:42;;;;;;;4.00;0.82;;;5.80;91.20;;;;;;4070631;29;20413;-80
2024/02/23 06:49:45;;;;;;;5.30;0.82;;;5.80;90.80;;;;;;4070356;29;20482;-80
2024/02/23 06:51:47;;;;;;;2.75;0.90;;;5.80;90.60;;;;;;4070276;29;20080;-80
2024/02/23 06:53:49;;;;;;;5.22;0.80;;;5.90;90.80;;;;;;4070099;29;20533;-80
2024/02/23 06:55:51;;;;;;;4.20;0.70;;;5.90;90.60;;;;;;4070265;29;20048;-81
2024/02/23 06:57:52;;;;;;;4.25;0.75;;;5.90;90.10;;;;;;4070488;29;20104;-79
2024/02/23 06:59:54;;;;;;;5.13;0.88;;;5.90;90.00;;;;;;4070311;29;20486;-80
2024/02/23 07:01:56;;;;;;;4.82;0.80;;;5.90;89.50;;;;;;4070088;29;20056;-79
2024/02/23 07:03:58;;;;;;;4.93;0.80;;;5.90;89.60;;;;;;4070335;29;20056;-81
2024/02/23 07:06:01;;;;;;;4.60;1.00;;;5.90;89.20;;;;;;4070211;29;20044;-79
2024/02/23 07:08:04;;;;;;;3.35;0.90;;;6.00;89.80;;;;;;4070001;29;20064;-79
2024/02/23 07:10:06;;;;;;;3.58;0.65;;;6.00;89.90;;;;;;4070152;29;20070;-79
2024/02/23 07:12:11;;;;;;;4.18;0.80;;;6.00;89.50;;;;;;4070179;29;20052;-78
2024/02/23 07:14:14;;;;;;;2.58;0.90;;;6.00;89.10;;;;;;4070070;29;20450;-79
2024/02/23 07:16:16;;;;;;;2.47;0.80;;;6.00;89.40;;;;;;4069942;29;20048;-76
2024/02/23 07:18:17;;;;;;;2.75;0.80;;;6.10;90.30;;;;;;4069984;29;20052;-79
2024/02/23 07:20:19;;;;;;;6.10;0.80;;;6.10;89.20;;;;;;4069816;29;20402;-82
2024/02/23 07:22:21;;;;;;;4.07;0.90;;;6.20;89.00;;;;;;4069956;29;20052;-79
2024/02/23 07:24:23;;;;;;;3.40;1.00;;;6.20;88.00;;;;;;4069305;29;20056;-81
2024/02/23 07:26:27;;;;;;;3.28;0.98;;;6.30;89.20;;;;;;4069954;29;20048;-79
2024/02/23 07:28:28;;;;;;;5.35;1.13;;;6.30;89.40;;;;;;4070177;29;20135;-79
2024/02/23 07:30:30;;;;;;;2.80;0.90;;;6.30;88.40;;;;;;4070046;29;20066;-79
2024/02/23 07:32:32;;;;;;;4.18;1.23;;;6.30;87.10;;;;;;4070049;29;20056;-78
2024/02/23 07:34:34;;;;;;;5.40;1.20;;;6.30;87.80;;;;;;4069436;29;20458;-78
2024/02/23 07:36:36;;;;;;;5.38;1.00;;;6.30;87.80;;;;;;4069728;29;20048;-81
2024/02/23 07:38:38;;;;;;;3.45;0.90;;;6.30;87.30;;;;;;4069462;29;20050;-80
2024/02/23 07:40:40;;;;;;;4.40;1.00;;;6.30;86.80;;;;;;4069721;29;20047;-78
2024/02/23 07:42:42;;;;;;;4.00;1.10;;;6.30;87.20;;;;;;4069794;29;20087;-80
2024/02/23 07:44:44;;;;;;;5.00;1.25;;;6.30;86.40;;;;;;4069652;29;20104;-79
2024/02/23 07:46:45;;;;;;;5.82;1.20;;;6.30;86.90;;;;;;4069645;29;20123;-80
2024/02/23 07:48:48;;;;;;;4.32;0.95;;;6.30;86.60;;;;;;4069404;29;20079;-81
2024/02/23 07:50:50;;;;;;;5.72;1.20;;;6.40;88.10;;;;;;4069483;29;20084;-79
2024/02/23 07:52:51;;;;;;;4.28;1.15;;;6.40;87.70;;;;;;4069397;29;20135;-79
2024/02/23 07:54:55;;;;;;;3.83;1.10;;;6.40;88.90;;;;;;4069817;29;20521;-81
2024/02/23 07:56:57;;;;;;;3.75;1.00;;;6.40;86.20;;;;;;4069568;29;20059;-77
2024/02/23 07:58:59;;;;;;;3.92;1.00;;;6.30;86.00;;;;;;4069671;29;20059;-77
2024/02/23 08:01:01;;;;;;;4.57;1.10;;;6.40;86.70;;;;;;4069244;29;20123;-80
2024/02/23 08:03:02;;;;;;;6.40;2.10;;;6.30;84.80;;;;;;4069504;29;20060;-80
2024/02/23 08:05:05;;;;;;;3.97;0.85;;;6.30;85.20;;;;;;4070260;29;20102;-80
2024/02/23 08:07:07;;;;;;;8.30;4.00;;;6.30;84.90;;;;;;4069439;29;20052;-81
2024/02/23 08:09:09;;;;;;;16.23;6.13;;;6.40;85.30;;;;;;4069266;29;20048;-81
2024/02/23 08:11:13;;;;;;;3.70;0.95;;;6.50;85.00;;;;;;4069095;29;20084;-79
2024/02/23 08:13:16;;;;;;;5.57;1.60;;;6.50;83.80;;;;;;4069139;29;20098;-80
2024/02/23 08:15:16;;;;;;;6.07;1.60;;;6.50;83.90;;;;;;4069094;29;20136;-78
2024/02/23 08:17:18;;;;;;;3.22;1.05;;;6.50;83.80;;;;;;4069058;29;20060;-80
2024/02/23 08:19:19;;;;;;;4.72;1.20;;;6.50;83.80;;;;;;4069103;29;20044;-80
2024/02/23 08:21:21;;;;;;;3.80;0.90;;;6.60;83.30;;;;;;4069237;29;20063;-79
2024/02/23 08:23:23;;;;;;;3.90;1.20;;;6.60;81.90;;;;;;4068786;29;20111;-79
2024/02/23 08:25:28;;;;;;;4.68;1.10;;;6.50;82.00;;;;;;4068956;29;20115;-80
2024/02/23 08:27:31;;;;;;;4.70;1.10;;;6.60;82.30;;;;;;4069187;29;20044;-79
2024/02/23 08:29:33;;;;;;;5.65;2.15;;;6.60;82.80;;;;;;4069116;29;20052;-80
2024/02/23 08:31:34;;;;;;;3.70;1.23;;;6.70;83.10;;;;;;4069026;29;20059;-78
2024/02/23 08:33:36;;;;;;;4.22;1.00;;;6.70;81.80;;;;;;4068943;29;20048;-77
2024/02/23 08:35:38;;;;;;;3.58;1.02;;;6.60;81.20;;;;;;4068022;29;20052;-78
2024/02/23 08:37:39;;;;;;;3.03;0.80;;;6.60;82.10;;;;;;4069113;29;20100;-81
2024/02/23 08:39:41;;;;;;;5.70;1.17;;;6.60;82.40;;;;;;4068918;29;20044;-79
2024/02/23 08:41:42;;;;;;;3.58;0.90;;;6.50;81.70;;;;;;4068883;29;20470;-80
2024/02/23 08:43:46;;;;;;;2.08;0.77;;;6.50;81.60;;;;;;4068914;29;20107;-80
2024/02/23 08:45:48;;;;;;;3.92;0.90;;;6.60;81.90;;;;;;4068807;29;20051;-79
2024/02/23 08:47:50;;;;;;;5.13;1.00;;;6.50;81.50;;;;;;4068690;29;20080;-80
2024/02/23 08:49:52;;;;;;;5.03;0.90;;;6.50;81.80;;;;;;4068787;29;20052;-78
2024/02/23 08:51:54;;;;;;;4.00;0.80;;;6.60;82.60;;;;;;4068799;29;20056;-82
2024/02/23 08:53:57;;;;;;;3.22;1.10;;;6.60;82.60;;;;;;4068499;29;20059;-81
2024/02/23 08:55:58;;;;;;;5.30;0.90;;;6.60;83.00;;;;;;4068849;29;20140;-77
2024/02/23 08:58:00;;;;;;;4.10;0.98;;;6.60;83.90;;;;;;4068681;29;20547;-79
2024/02/23 09:00:04;;;;;;;3.15;1.20;;;6.70;83.60;;;;;;4068789;29;20100;-80
2024/02/23 09:02:07;;;;;;;3.95;1.40;;;6.70;84.60;;;;;;4068500;29;20091;-80
2024/02/23 09:04:08;;;;;;;3.70;1.20;;;6.70;84.10;;;;;;4068886;29;20056;-79
2024/02/23 09:06:10;;;;;;;2.85;0.70;;;6.80;84.10;;;;;;4068713;29;20059;-80
2024/02/23 09:08:12;;;;;;;3.95;0.90;;;6.80;84.50;;;;;;4068814;29;20052;-80
2024/02/23 09:10:14;;;;;;;4.35;0.95;;;6.90;85.20;;;;;;4068969;29;20100;-79
2024/02/23 09:12:16;;;;;;;5.22;1.45;;;6.90;83.50;;;;;;4068525;29;20059;-79
2024/02/23 09:14:18;;;;;;;4.32;1.00;;;6.90;83.80;;;;;;4068431;29;20044;-80
2024/02/23 09:16:24;;;;;;;3.85;0.82;;;7.00;84.70;;;;;;4068584;29;20112;-81
2024/02/23 09:18:26;;;;;;;4.28;0.95;;;7.10;82.60;;;;;;4068746;29;20139;-80
2024/02/23 09:20:28;;;;;;;4.30;0.88;;;7.10;82.10;;;;;;4068789;29;20044;-79
2024/02/23 09:22:30;;;;;;;3.90;0.85;;;7.20;82.70;;;;;;4068326;29;20055;-81
2024/02/23 09:24:31;;;;;;;2.50;0.90;;;7.30;83.80;;;;;;4068739;29;20075;-79
2024/02/23 09:26:33;;;;;;;2.38;0.90;;;7.40;84.30;;;;;;4069543;29;20048;-79
2024/02/23 09:28:35;;;;;;;5.40;0.90;;;7.50;82.60;;;;;;4069902;29;20056;-78
2024/02/23 09:30:37;;;;;;;4.95;1.00;;;7.50;83.30;;;;;;4070379;29;20052;-78
2024/02/23 09:32:40;;;;;;;3.42;0.85;;;7.50;81.10;;;;;;4070012;29;20468;-78
2024/02/23 09:34:42;;;;;;;4.68;1.02;;;7.50;80.40;;;;;;4070517;29;20048;-77
2024/02/23 09:36:44;;;;;;;5.07;1.05;;;7.60;80.00;;;;;;4069630;29;20048;-78
2024/02/23 09:38:48;;;;;;;2.80;0.80;;;7.70;79.90;;;;;;4069920;29;20395;-78
2024/02/23 09:40:50;;;;;;;3.65;1.00;;;7.70;80.60;;;;;;4069663;29;20051;-78
2024/02/23 09:42:57;;;;;;;6.03;0.90;;;7.80;80.00;;;;;;4070064;29;20084;-79
2024/02/23 09:45:00;;;;;;;3.05;0.90;;;7.90;80.10;;;;;;4069674;29;20052;-78
2024/02/23 09:47:08;;;;;;;4.18;1.27;;;7.90;79.80;;;;;;4070314;29;20059;-81
2024/02/23 09:49:13;;;;;;;4.05;1.08;;;8.00;79.90;;;;;;4071810;29;20063;-79
2024/02/23 09:51:17;;;;;;;3.50;0.90;;;8.00;78.20;;;;;;4071263;29;20048;-81
2024/02/23 09:53:21;;;;;;;5.50;0.90;;;8.10;78.00;;;;;;4071237;29;20056;-78
2024/02/23 09:55:23;;;;;;;3.90;0.90;;;8.00;76.50;;;;;;4071379;29;20056;-80
2024/02/23 09:57:24;;;;;;;4.47;0.90;;;7.90;76.30;;;;;;4071296;29;20048;-80
2024/02/23 09:59:28;;;;;;;3.90;1.27;;;8.00;76.40;;;;;;4071158;29;20139;-79
2024/02/23 10:01:32;;;;;;;3.78;0.73;;;7.90;73.70;;;;;;4071185;29;20447;-79
2024/02/23 10:03:34;;;;;;;5.55;1.00;;;7.80;73.20;;;;;;4072606;29;20076;-79
2024/02/23 10:05:38;;;;;;;4.60;1.00;;;7.70;74.30;;;;;;4072779;29;20123;-77
2024/02/23 10:07:39;;;;;;;3.47;0.80;;;7.70;74.30;;;;;;4072350;29;20499;-79
2024/02/23 10:09:41;;;;;;;4.47;0.93;;;7.80;75.70;;;;;;4071762;29;20072;-79
2024/02/23 10:11:42;;;;;;;5.25;1.10;;;7.80;74.00;;;;;;4071719;29;20048;-78
2024/02/23 10:13:43;;;;;;;4.88;1.10;;;7.90;73.60;;;;;;4071396;29;20462;-80
2024/02/23 10:15:45;;;;;;;3.05;1.00;;;7.90;72.70;;;;;;4070805;29;20099;-81
2024/02/23 10:17:48;;;;;;;5.97;0.85;;;7.90;72.60;;;;;;4071113;29;20104;-79
2024/02/23 10:19:51;;;;;;;8.77;1.17;;;8.00;72.40;;;;;;4071296;29;20048;-79
2024/02/23 10:21:53;;;;;;;3.40;0.85;;;8.00;71.70;;;;;;4071877;29;20076;-81
2024/02/23 10:23:57;;;;;;;3.83;0.90;;;7.90;71.30;;;;;;4071174;29;20056;-77
2024/02/23 10:25:59;;;;;;;4.20;0.90;;;7.90;71.60;;;;;;4070967;29;20431;-79
2024/02/23 10:28:02;;;;;;;6.28;0.88;;;7.80;71.10;;;;;;4081417;29;20082;-80
2024/02/23 10:30:05;;;;;;;6.07;0.77;;;7.80;71.30;;;;;;4087571;29;20083;-80
2024/02/23 10:32:09;;;;;;;4.07;0.88;;;7.90;72.20;;;;;;4082482;29;20048;-78
2024/02/23 10:34:12;;;;;;;5.25;1.15;;;8.10;73.40;;;;;;4071282;29;20090;-82
2024/02/23 10:36:17;;;;;;;3.17;0.80;;;8.20;72.40;;;;;;4071422;29;20048;-82
2024/02/23 10:38:20;;;;;;;3.97;1.00;;;8.20;71.90;;;;;;4071335;29;20079;-82
2024/02/23 10:40:23;;;;;;;3.58;0.85;;;8.30;71.40;;;;;;4071194;29;20103;-83
2024/02/23 10:42:32;;;;;;;3.53;0.93;;;8.20;71.40;;;;;;4071496;29;20147;-80
2024/02/23 10:44:35;;;;;;;4.10;1.00;;;8.20;71.10;;;;;;4071197;29;20135;-81
2024/02/23 10:46:37;;;;;;;2.72;0.90;;;8.10;71.10;;;;;;4073233;29;20490;-84
2024/02/23 10:48:40;;;;;;;3.08;0.70;;;8.20;71.20;;;;;;4087446;29;20409;-82
2024/02/23 10:50:44;;;;;;;5.63;1.30;;;8.30;71.60;;;;;;4086356;29;20454;-82
2024/02/23 10:52:46;;;;;;;4.38;1.10;;;8.40;71.70;;;;;;4060404;29;20422;-82
2024/02/23 10:54:51;;;;;;;4.70;0.80;;;8.60;72.10;;;;;;4070449;29;20417;-82
2024/02/23 10:56:55;;;;;;;3.08;0.90;;;8.60;71.10;;;;;;4070561;29;20048;-82
2024/02/23 10:58:56;;;;;;;6.53;1.27;;;8.60;70.50;;;;;;4069298;29;20478;-81
2024/02/23 11:01:02;;;;;;;4.05;1.05;;;8.60;71.10;;;;;;4070796;29;20147;-80
2024/02/23 11:03:06;;;;;;;3.63;1.08;;;8.70;70.70;;;;;;4084103;29;20127;-82
2024/02/23 11:05:12;;;;;;;4.97;0.93;;;8.70;70.20;;;;;;4086287;29;20493;-82
2024/02/23 11:07:14;;;;;;;;;;;8.70;70.50;;;;;;4080226;29;20059;-88
2024/02/23 11:09:16;;;;;;;5.45;1.05;;;8.70;70.90;;;;;;4070261;29;19927;-83
2024/02/23 11:11:18;;;;;;;3.95;0.80;;;8.70;71.90;;;;;;4070007;29;20055;-80
2024/02/23 11:13:32;;;;;;;3.45;0.75;;;8.80;71.10;;;;;;4070841;29;20052;-81
2024/02/23 11:15:40;;;;;;;12.07;5.05;;;8.80;69.20;;;;;;4072935;29;20407;-80
2024/02/23 11:17:42;;;;;;;3.92;1.27;;;8.70;68.00;;;;;;4072419;29;20056;-81
2024/02/23 11:19:51;;;;;;;5.75;1.17;;;8.70;68.60;;;;;;4071071;29;20052;-80
2024/02/23 11:21:54;;;;;;;5.45;1.02;;;8.60;67.50;;;;;;4073516;29;20483;-81
2024/02/23 11:23:56;;;;;;;5.03;1.35;;;8.60;68.60;;;;;;4072932;29;20048;-81
2024/02/23 11:26:08;;;;;;;5.28;1.00;;;8.50;68.20;;;;;;4072477;29;20057;-81
2024/02/23 11:28:23;;;;;;;3.72;0.80;;;8.60;68.50;;;;;;4072440;29;20058;-82
2024/02/23 11:30:27;;;;;;;5.13;0.93;;;8.50;67.90;;;;;;4072104;29;20047;-81
2024/02/23 11:32:40;;;;;;;5.38;1.15;;;8.40;68.20;;;;;;4072100;29;20138;-82
2024/02/23 11:34:43;;;;;;;6.30;1.13;;;8.40;68.60;;;;;;4073356;29;20055;-82
2024/02/23 11:36:53;;;;;;;4.13;0.90;;;8.50;69.90;;;;;;4073331;29;20528;-82
2024/02/23 11:38:55;;;;;;;6.20;1.00;;;8.60;69.40;;;;;;4073098;29;20051;-82
2024/02/23 11:40:57;;;;;;;7.47;1.70;;;8.70;69.50;;;;;;4071165;29;20387;-81
2024/02/23 11:43:00;;;;;;;6.18;1.05;;;8.80;69.60;;;;;;4073437;29;20072;-82
2024/02/23 11:45:05;;;;;;;7.07;1.10;;;8.90;68.90;;;;;;4073065;29;20052;-82
2024/02/23 11:47:08;;;;;;;5.20;1.20;;;8.90;68.60;;;;;;4072268;29;20055;-83
2024/02/23 11:49:09;;;;;;;5.63;0.98;;;8.90;68.90;;;;;;4072543;29;20052;-82
2024/02/23 11:51:12;;;;;;;4.68;0.93;;;9.00;68.30;;;;;;4073110;29;20056;-83
2024/02/23 11:53:14;;;;;;;5.45;1.20;;;9.00;69.10;;;;;;4072083;29;20051;-81
2024/02/23 11:55:22;;;;;;;5.90;0.95;;;9.10;69.60;;;;;;4070692;29;20076;-82
2024/02/23 11:57:25;;;;;;;6.45;1.50;;;9.10;69.20;;;;;;4071960;29;20421;-79
2024/02/23 11:59:28;;;;;;;4.38;1.10;;;9.20;68.70;;;;;;4070282;29;20450;-81
2024/02/23 12:01:32;;;;;;;7.28;2.05;;;9.20;69.70;;;;;;4070182;29;20068;-81
2024/02/23 12:03:35;;;;;;;7.80;2.50;;;9.30;69.90;;;;;;4070620;29;20056;-80
2024/02/23 12:05:37;;;;;;;5.97;1.50;;;9.40;70.90;;;;;;4072885;29;20052;-82
2024/02/23 12:07:39;;;;;;;7.70;2.38;;;9.40;70.40;;;;;;4069951;29;20059;-82
2024/02/23 12:09:41;;;;;;;9.43;2.55;;;9.30;70.60;;;;;;4072396;29;20067;-82
2024/02/23 12:11:43;;;;;;;4.18;1.30;;;9.30;71.30;;;;;;4070943;29;20063;-83
2024/02/23 12:13:45;;;;;;;9.82;2.42;;;9.40;71.30;;;;;;4070056;29;20052;-81
2024/02/23 12:15:47;;;;;;;5.93;1.20;;;9.40;71.20;;;;;;4069542;29;20532;-82
2024/02/23 12:17:51;;;;;;;4.88;1.20;;;9.40;70.60;;;;;;4070770;29;20063;-85
2024/02/23 12:20:00;;;;;;;5.20;1.17;;;9.40;70.80;;;;;;4069806;29;20127;-83
2024/02/23 12:22:02;;;;;;;8.75;1.40;;;9.50;71.50;;;;;;4069782;29;20123;-81
2024/02/23 12:24:07;;;;;;;5.65;1.30;;;9.60;71.10;;;;;;4069387;29;20455;-82
2024/02/23 12:26:10;;;;;;;5.93;1.20;;;9.60;70.70;;;;;;4068878;29;20056;-81
2024/02/23 12:28:12;;;;;;;4.65;1.02;;;9.60;70.00;;;;;;4069268;29;20056;-82
2024/02/23 12:30:17;;;;;;;6.75;1.38;;;9.60;70.60;;;;;;4069100;29;20198;-82
2024/02/23 12:32:22;;;;;;;11.27;4.88;;;9.70;70.30;;;;;;4069059;29;20052;-82
2024/02/23 12:34:26;;;;;;;7.88;2.47;;;9.60;70.10;;;;;;4069186;29;20550;-81
2024/02/23 12:36:30;;;;;;;4.57;1.13;;;9.60;69.60;;;;;;4069084;29;20052;-81
2024/02/23 12:38:32;;;;;;;5.50;1.10;;;9.50;69.70;;;;;;4069033;29;20048;-83
2024/02/23 12:40:34;;;;;;;7.88;1.00;;;9.60;70.40;;;;;;4068846;29;20459;-82
2024/02/23 12:42:36;;;;;;;5.35;1.02;;;9.70;69.90;;;;;;4069354;29;20478;-78
2024/02/23 12:44:38;;;;;;;5.18;1.20;;;9.70;69.30;;;;;;4077540;29;20056;-79
2024/02/23 12:46:41;;;;;;;4.65;1.10;;;9.80;69.40;;;;;;4069412;29;20401;-80
2024/02/23 12:48:43;;;;;;;6.22;1.25;;;9.70;69.00;;;;;;4076158;29;20059;-80
2024/02/23 12:50:45;;;;;;;5.75;0.98;;;9.80;70.00;;;;;;4085350;29;20079;-80
2024/02/23 12:52:47;;;;;;;9.25;1.30;;;9.90;69.30;;;;;;4084837;29;20127;-82
2024/02/23 12:54:48;;;;;;;6.60;1.55;;;9.90;68.50;;;;;;4085040;29;20095;-79
2024/02/23 12:56:49;;;;;;;5.80;0.75;;;10.10;68.80;;;;;;4085615;29;20060;-83
2024/02/23 12:58:53;;;;;;;6.93;1.65;;;10.20;67.80;;;;;;4081407;29;20052;-79
2024/02/23 13:00:55;;;;;;;5.18;1.20;;;10.20;68.10;;;;;;4075391;29;20052;-79
2024/02/23 13:02:57;;;;;;;4.97;1.10;;;10.20;68.50;;;;;;4052090;29;20056;-80
2024/02/23 13:04:59;;;;;;;6.28;1.23;;;10.30;68.10;;;;;;4062440;29;20103;-80
2024/02/23 13:07:03;;;;;;;5.20;1.15;;;10.50;68.50;;;;;;4071415;29;20044;-79
2024/02/23 13:09:07;;;;;;;9.60;1.42;;;10.40;67.10;;;;;;4067649;29;20430;-79
2024/02/23 13:11:10;;;;;;;7.07;1.60;;;10.40;67.00;;;;;;4075812;29;20138;-79
2024/02/23 13:13:12;;;;;;;4.82;1.00;;;10.40;67.50;;;;;;4080164;29;20051;-80
2024/02/23 13:15:15;;;;;;;4.82;0.93;;;10.40;66.60;;;;;;4066673;29;20048;-80
2024/02/23 13:17:17;;;;;;;10.13;1.75;;;10.50;68.10;;;;;;4067046;29;20414;-79
2024/02/23 13:19:19;;;;;;;6.47;1.42;;;10.40;67.00;;;;;;4064705;29;20052;-79
2024/02/23 13:21:21;;;;;;;8.07;1.40;;;10.40;66.50;;;;;;4067336;29;20052;-80
2024/02/23 13:23:24;;;;;;;6.32;1.15;;;10.50;66.60;;;;;;4069791;29;20100;-78
2024/02/23 13:25:26;;;;;;;5.82;1.33;;;10.40;66.10;;;;;;4069070;29;20056;-79
2024/02/23 13:27:29;;;;;;;6.13;1.13;;;10.40;65.90;;;;;;4069720;29;20131;-78
2024/02/23 13:29:33;;;;;;;8.52;1.40;;;10.60;66.80;;;;;;4081361;29;20111;-78
2024/02/23 13:31:35;;;;;;;6.07;1.23;;;10.60;66.80;;;;;;4085367;29;20087;-79
2024/02/23 13:33:37;;;;;;;9.05;1.50;;;10.60;66.50;;;;;;4084950;29;20106;-77
2024/02/23 13:35:39;;;;;;;6.05;1.30;;;10.60;66.10;;;;;;4069272;29;20053;-78
2024/02/23 13:37:40;;;;;;;5.75;1.17;;;10.80;65.20;;;;;;4070787;29;20107;-78
2024/02/23 13:39:44;;;;;;;7.50;1.35;;;10.80;64.70;;;;;;4085406;29;20056;-78
2024/02/23 13:41:45;;;;;;;11.23;1.60;;;10.90;65.10;;;;;;4085244;29;20052;-80
2024/02/23 13:43:47;;;;;;;254.75;27.13;;;11.00;65.30;;;;;;4084882;29;20103;-79
2024/02/23 13:45:51;;;;;;;23.45;4.28;;;10.90;65.70;;;;;;4075778;29;20048;-80
2024/02/23 13:47:58;;;;;;;11.00;1.52;;;11.00;64.90;;;;;;4072176;29;20119;-79
2024/02/23 13:50:00;;;;;;;6.47;1.35;;;10.80;64.00;;;;;;4078102;29;20433;-79
2024/02/23 13:52:02;;;;;;;15.52;5.35;;;10.80;65.20;;;;;;4069384;29;20413;-78
2024/02/23 13:54:04;;;;;;;6.13;1.30;;;10.70;65.00;;;;;;4069530;29;20656;-80
2024/02/23 13:56:08;;;;;;;5.82;1.25;;;10.50;63.70;;;;;;4069497;29;20055;-78
2024/02/23 13:58:09;;;;;;;6.07;1.08;;;10.50;64.00;;;;;;4069279;29;20111;-77
2024/02/23 14:00:13;;;;;;;5.47;1.13;;;10.60;64.40;;;;;;4069221;29;20053;-77
2024/02/23 14:02:15;;;;;;;8.60;1.73;;;10.60;64.70;;;;;;4069169;29;20540;-78
2024/02/23 14:04:18;;;;;;;6.70;1.45;;;10.60;64.60;;;;;;4084892;29;20540;-78
2024/02/23 14:06:19;;;;;;;8.77;1.40;;;10.50;64.70;;;;;;4085267;29;20127;-78
2024/02/23 14:08:21;;;;;;;6.82;1.40;;;10.50;65.90;;;;;;4085085;29;20059;-78
2024/02/23 14:10:23;;;;;;;214.18;25.48;;;10.50;65.10;;;;;;4078450;29;20052;-77
2024/02/23 14:12:27;;;;;;;38.13;5.95;;;10.40;65.60;;;;;;4068937;29;20459;-79
2024/02/23 14:14:29;;;;;;;248.27;27.80;;;10.40;65.40;;;;;;4078990;29;20069;-78
2024/02/23 14:16:31;;;;;;;173.82;20.25;;;10.30;65.00;;;;;;4070211;29;20100;-77
2024/02/23 14:18:36;;;;;;;63.30;7.82;;;10.40;66.10;;;;;;4067436;29;20486;-77
2024/02/23 14:20:38;;;;;;;86.00;9.70;;;10.40;65.40;;;;;;4069455;29;20048;-79
2024/02/23 14:22:40;;;;;;;38.53;4.93;;;10.30;64.80;;;;;;4069408;29;20478;-78
2024/02/23 14:24:42;;;;;;;47.80;8.30;;;10.40;66.20;;;;;;4078233;29;20552;-81
2024/02/23 14:26:44;;;;;;;15.05;3.08;;;10.40;65.40;;;;;;4085081;29;20059;-81
2024/02/23 14:28:48;;;;;;;9.27;1.70;;;10.50;65.20;;;;;;4084844;29;20126;-79
2024/02/23 14:30:50;;;;;;;6.20;1.48;;;10.60;64.60;;;;;;4084722;29;20090;-80
2024/02/23 14:32:54;;;;;;;11.77;1.73;;;11.40;63.20;;;;;;4072745;29;21707;-79
2024/02/23 14:34:57;;;;;;;7.80;1.80;;;11.50;62.30;;;;;;4073482;29;20060;-79
2024/02/23 14:36:59;;;;;;;10.60;2.20;;;12.20;60.00;;;;;;4083984;29;20099;-78
2024/02/23 14:39:00;;;;;;;6.70;1.90;;;12.80;58.50;;;;;;4082748;29;20055;-78
2024/02/23 14:41:02;;;;;;;7.72;3.85;;;13.40;57.10;;;;;;4068618;29;20541;-78
2024/02/23 14:43:04;;;;;;;7.97;1.92;;;15.40;53.80;;;;;;4068714;29;20098;-79
2024/02/23 14:45:09;;;;;;;5.63;1.60;;;16.20;49.90;;;;;;4068632;29;20056;-78
2024/02/23 14:47:12;;;;;;;3.50;1.10;;;16.60;47.50;;;;;;4068960;29;20047;-77
2024/02/23 14:49:14;;;;;;;5.65;1.10;;;15.50;48.20;;;;;;4083724;29;20086;-79
2024/02/23 14:51:15;;;;;;;6.00;1.40;;;14.60;49.90;;;;;;4083959;29;20119;-78
2024/02/23 14:53:17;;;;;;;6.90;1.60;;;14.20;50.60;;;;;;4084169;29;20396;-78
2024/02/23 14:55:19;;;;;;;7.85;1.40;;;14.70;51.00;;;;;;4083992;29;20056;-78
2024/02/23 14:57:21;;;;;;;4.47;1.38;;;15.00;50.00;;;;;;4084145;29;20060;-77
2024/02/23 14:59:23;;;;;;;7.10;1.55;;;15.80;47.90;;;;;;4082623;29;20051;-78
2024/02/23 15:01:27;;;;;;;7.18;2.90;;;15.40;49.00;;;;;;4068638;29;20068;-78
2024/02/23 15:03:29;;;;;;;6.32;5.72;;;17.40;48.40;;;;;;4077038;29;20072;-77
2024/02/23 15:05:30;;;;;;;6.45;3.13;;;21.80;39.60;;;;;;4084426;29;20521;-79
2024/02/23 15:07:32;;;;;;;5.13;3.25;;;25.30;31.90;;;;;;4083885;29;20051;-78
2024/02/23 15:09:33;;;;;;;9.45;5.07;;;27.50;28.50;;;;;;4083717;29;20047;-77
2024/02/23 15:11:35;;;;;;;10.23;4.15;;;28.00;26.40;;;;;;4079855;29;20550;-78
2024/02/23 15:13:37;;;;;;;8.60;1.67;;;26.10;25.90;;;;;;4070620;29;20055;-77
2024/02/23 15:15:40;;;;;;;6.10;1.10;;;23.00;29.00;;;;;;4083151;29;20690;-78
2024/02/23 15:17:46;;;;;;;5.20;1.40;;;20.80;32.60;;;;;;4080027;29;20414;-77
2024/02/23 15:19:47;;;;;;;5.10;1.17;;;19.00;35.90;;;;;;4065858;29;20111;-75
2024/02/23 15:21:53;;;;;;;5.57;1.27;;;17.90;38.50;;;;;;4068229;29;20143;-78
2024/02/23 15:23:56;;;;;;;5.45;1.27;;;17.00;39.80;;;;;;4067734;29;20056;-78
2024/02/23 15:25:58;;;;;;;5.10;1.30;;;16.10;41.30;;;;;;4067581;29;20090;-78
2024/02/23 15:28:00;;;;;;;6.13;1.38;;;15.60;43.20;;;;;;4069289;29;20052;-78
2024/02/23 15:30:03;;;;;;;5.38;1.15;;;15.20;43.80;;;;;;4067921;29;20485;-78
2024/02/23 15:32:06;;;;;;;6.25;1.30;;;14.90;45.00;;;;;;4068201;29;20482;-77
2024/02/23 15:34:08;;;;;;;5.05;1.38;;;14.60;45.70;;;;;;4081957;29;20060;-79
2024/02/23 15:36:10;;;;;;;4.57;1.15;;;14.40;46.90;;;;;;4083269;29;20453;-77
2024/02/23 15:38:12;;;;;;;5.57;1.30;;;14.20;47.60;;;;;;4079786;29;20056;-77
2024/02/23 15:40:15;;;;;;;5.93;1.20;;;13.80;47.60;;;;;;4067451;29;20462;-79
2024/02/23 15:42:20;;;;;;;5.40;1.02;;;13.60;48.90;;;;;;4067585;29;20052;-78
2024/02/23 15:44:22;;;;;;;5.10;1.10;;;13.20;49.80;;;;;;4069221;29;20076;-80
2024/02/23 15:46:23;;;;;;;5.13;1.20;;;13.20;50.40;;;;;;4068105;29;20079;-80
2024/02/23 15:48:25;;;;;;;5.18;1.30;;;13.30;50.40;;;;;;4069317;29;20112;-78
2024/02/23 15:50:30;;;;;;;6.15;1.23;;;13.00;50.20;;;;;;4068975;29;20107;-79
2024/02/23 15:52:31;;;;;;;5.75;1.10;;;12.80;51.00;;;;;;4069357;29;20379;-81
2024/02/23 15:54:33;;;;;;;4.47;1.10;;;12.60;52.20;;;;;;4068724;29;20076;-79
2024/02/23 15:56:35;;;;;;;8.60;1.40;;;12.50;52.50;;;;;;4075065;29;20063;-78
2024/02/23 15:58:37;;;;;;;6.97;1.40;;;12.30;53.10;;;;;;4084756;29;20058;-78
2024/02/23 16:00:39;;;;;;;7.47;1.23;;;12.20;53.60;;;;;;4086839;29;20564;-78
2024/02/23 16:02:42;;;;;;;6.82;1.33;;;12.20;54.00;;;;;;4084434;29;20071;-79
2024/02/23 16:04:47;;;;;;;5.25;1.42;;;12.10;54.20;;;;;;4085275;29;20107;-78
2024/02/23 16:06:51;;;;;;;7.03;1.15;;;12.10;54.10;;;;;;4086476;29;20061;-79
2024/02/23 16:08:54;;;;;;;6.90;1.40;;;12.00;55.00;;;;;;4073747;29;20048;-78
2024/02/23 16:10:56;;;;;;;5.80;1.85;;;11.80;55.20;;;;;;4071396;29;20052;-78
2024/02/23 16:12:59;;;;;;;6.43;1.33;;;11.80;55.30;;;;;;4070622;29;20099;-78
2024/02/23 16:15:03;;;;;;;5.60;1.10;;;11.70;55.40;;;;;;4069712;29;20391;-78
2024/02/23 16:17:05;;;;;;;6.57;1.20;;;11.60;55.40;;;;;;4070010;29;20099;-77
2024/02/23 16:19:07;;;;;;;5.45;1.40;;;11.40;56.00;;;;;;4069525;29;20055;-77
2024/02/23 16:21:09;;;;;;;6.88;1.55;;;11.40;56.10;;;;;;4076220;29;20064;-78
2024/02/23 16:23:13;;;;;;;5.32;1.40;;;11.40;56.60;;;;;;4069054;29;20498;-78
2024/02/23 16:25:15;;;;;;;5.85;1.30;;;11.30;56.90;;;;;;4067181;29;20391;-79
2024/02/23 16:27:16;;;;;;;5.07;1.20;;;11.30;57.00;;;;;;4067426;29;20055;-79
2024/02/23 16:29:19;;;;;;;4.95;1.05;;;11.20;57.80;;;;;;4066999;29;20056;-79
2024/02/23 16:31:21;;;;;;;5.05;1.00;;;11.10;58.20;;;;;;4067286;29;20115;-79
2024/02/23 16:33:22;;;;;;;4.10;1.10;;;11.00;58.60;;;;;;4075085;29;20051;-78
2024/02/23 16:35:24;;;;;;;5.82;1.48;;;11.00;58.40;;;;;;4077731;29;20103;-78
2024/02/23 16:37:27;;;;;;;7.43;1.40;;;10.90;58.40;;;;;;4072026;29;20059;-80
2024/02/23 16:39:30;;;;;;;6.65;1.80;;;10.70;58.90;;;;;;4078492;29;20492;-81
2024/02/23 16:41:32;;;;;;;6.85;1.30;;;10.60;59.10;;;;;;4066886;29;20056;-80
2024/02/23 16:43:33;;;;;;;4.68;1.42;;;10.50;59.40;;;;;;4066476;29;20107;-79